• Join FlightAware (Why Join?)
  • Login
  • US Flag 
09:09AM EDT


 

Airport Tracker/Info


-or-


 

Live Flight TrackerFlight Track Log ✈ N273SK ✈ 17-Apr-2013 ✈ KSDF - KLGA

Flight Track Log - Related Links

Times and Time Zones

All times are in EDT time to prevent confusion due to time zone crossing. See the N273SK flight status page for this flight to view local times or setup timezone preferences in your user account.

Time Position Orientation Groundspeed Altitude Reporting Facility
EDT Latitude Longitude Course Direction KTS MPH feet Rate Location/Type
06:09AM 38.2100 -85.7389 355° North 176 203 2,000  Level FAA TRACON SMA TRACON (SMA)
06:09AM 38.2264 -85.7447 344° North 192 221 2,700 2,700 Climbing FAA TRACON SMA TRACON (SMA)
06:10AM 38.2483 -85.7525 344° North 210 242 3,800 3,000 Climbing FAA TRACON SMA TRACON (SMA)
06:10AM 38.2664 -85.7581 346° North 215 247 4,700 2,520 Climbing FAA TRACON SMA TRACON (SMA)
06:10AM 38.2850 -85.7644 345° North 223 257 5,500 2,760 Climbing FAA TRACON SMA TRACON (SMA)
06:11AM 38.3078 -85.7753 340° North 228 262 6,600 3,000 Climbing FAA TRACON SMA TRACON (SMA)
06:11AM 38.3264 -85.7842 339° North 231 266 7,500 2,760 Climbing FAA TRACON SMA TRACON (SMA)
06:11AM 38.3453 -85.7939 338° Northwest 235 270 8,400 3,180 Climbing FAA TRACON SMA TRACON (SMA)
06:12AM 38.2682 -85.9672 345° North  Level FlightAware Approximate
06:12AM 38.3689 -85.8053 339° North 237 273 9,600  Level FAA TRACON SMA TRACON (SMA)
06:12AM 38.3883 -85.8164 336° Northwest 244 281 10,000 1,320 Climbing FAA TRACON SMA TRACON (SMA)
06:12AM 38.4100 -85.8267 340° North 262 302 10,500 1,620 Climbing FAA TRACON SMA TRACON (SMA)
06:13AM 38.3852 -85.9833 North  Level FlightAware Approximate
06:13AM 38.4386 -85.8400 340° North 283 326 11,100  Level FAA TRACON SMA TRACON (SMA)
06:13AM 38.4639 -85.8475 347° North 299 344 11,600 1,920 Climbing FAA TRACON SMA TRACON (SMA)
06:13AM 38.4953 -85.8592 344° North 308 354 12,400 2,520 Climbing FAA TRACON SMA TRACON (SMA)
06:14AM 38.5037 -85.9856 355° North  Level FlightAware Approximate
06:14AM 38.5189 -85.8739 334° Northwest 306 352 13,300  Level FAA TRACON SMA TRACON (SMA)
06:14AM 38.5433 -85.8828 344° North 304 350 14,200 2,760 Climbing FAA TRACON SMA TRACON (SMA)
06:14AM 38.5686 -85.8750 14° North 310 357 15,200 3,120 Climbing FAA TRACON SMA TRACON (SMA)
06:15AM 38.5981 -85.8572 25° Northeast 309 356 16,300 3,120 Climbing FAA TRACON SMA TRACON (SMA)
06:15AM 38.6200 -85.8392 33° Northeast 308 354 17,300 2,400 Climbing FAA TRACON SMA TRACON (SMA)
06:15AM 38.6322 -85.8272 37° Northeast 303 349 17,800 1,800 Climbing Indianapolis Center
06:16AM 38.6894 -85.7456 48° Northeast 306 352 19,600 1,620 Climbing Indianapolis Center
06:17AM 38.7564 -85.6586 45° Northeast 335 386 21,100 1,500 Climbing Indianapolis Center
06:18AM 38.8308 -85.5650 44° Northeast 370 426 22,700 1,500 Climbing Indianapolis Center
06:19AM 38.9078 -85.4675 45° Northeast 386 444 24,200 1,440 Climbing Indianapolis Center
06:20AM 38.9858 -85.3664 45° Northeast 395 455 25,700 1,440 Climbing Indianapolis Center
06:21AM 39.0658 -85.2647 45° Northeast 402 463 27,200 1,440 Climbing Indianapolis Center
06:22AM 39.1447 -85.1622 45° Northeast 402 463 28,700 1,380 Climbing Indianapolis Center
06:23AM 39.2228 -85.0617 45° Northeast 402 463 30,100 1,380 Climbing Indianapolis Center
06:24AM 39.3042 -84.9564 45° Northeast 410 472 31,600 1,440 Climbing Indianapolis Center
06:25AM 39.3850 -84.8489 46° Northeast 413 475 33,100 1,380 Climbing Indianapolis Center
06:26AM 39.4692 -84.7411 45° Northeast 419 482 34,500 900 Climbing Indianapolis Center
06:27AM 39.5525 -84.6314 45° Northeast 424 488 35,000 240 Climbing Indianapolis Center
06:28AM 39.6428 -84.5136 45° Northeast 451 519 35,100 900 Climbing Indianapolis Center
06:29AM 39.7325 -84.3969 45° Northeast 450 518 36,900 900 Climbing Indianapolis Center
06:30AM 39.8189 -84.2811 46° Northeast 442 509 37,000  Climbing Indianapolis Center
06:31AM 39.9061 -84.1647 46° Northeast 444 511 37,000  Level Indianapolis Center
06:32AM 39.9933 -84.0492 45° Northeast 442 509 37,000  Level Indianapolis Center
06:33AM 40.0806 -83.9308 46° Northeast 445 512 37,000  Level Indianapolis Center
06:34AM 40.1700 -83.8097 46° Northeast 453 521 37,000  Level Indianapolis Center
06:35AM 40.2619 -83.6872 45° Northeast 463 533 37,000  Level Indianapolis Center
06:36AM 40.3531 -83.5611 47° Northeast 468 539 37,000  Level Indianapolis Center
06:37AM 40.4450 -83.4364 46° Northeast 468 539 37,000  Level Indianapolis Center
06:38AM 40.5331 -83.3156 46° Northeast 455 524 37,000  Level Indianapolis Center
06:39AM 40.6214 -83.1931 46° Northeast 456 525 37,000  Level Indianapolis Center
06:40AM 40.7003 -83.0508 54° Northeast 460 529 37,000  Level Indianapolis Center
06:41AM 40.7425 -82.8892 71° East 463 533 37,000  Level Indianapolis Center
06:42AM 40.7783 -82.7467 72° East 451 519 37,000  Level Cleveland Center
06:43AM 40.8211 -82.5778 71° East 459 528 37,000  Level Cleveland Center
06:44AM 40.8611 -82.4197 71° East 459 528 37,000  Level Cleveland Center
06:45AM 40.9033 -82.2533 71° East 464 534 37,000  Level Cleveland Center
06:46AM 40.9431 -82.0922 72° East 464 534 37,000  Level Cleveland Center
06:47AM 40.9869 -81.9228 71° East 469 540 37,000  Level Cleveland Center
06:48AM 41.0264 -81.7556 73° East 469 540 37,000  Level Cleveland Center
06:49AM 41.0656 -81.5883 73° East 476 548 37,000  Level Cleveland Center
06:50AM 41.1083 -81.4208 71° East 476 548 37,000  Level Cleveland Center
06:51AM 41.1514 -81.2561 71° East 476 548 37,000  Level Cleveland Center
06:52AM 41.1917 -81.0825 73° East 481 554 37,000  Level Cleveland Center
06:53AM 41.2319 -80.9200 72° East 474 545 37,000  Level Cleveland Center
06:54AM 41.2719 -80.7489 73° East 474 545 37,000  Level Cleveland Center
06:55AM 41.3117 -80.5831 72° East 474 545 37,000  Level Cleveland Center
06:56AM 41.3511 -80.4144 73° East 474 545 37,000  Level Cleveland Center
06:57AM 41.3864 -80.2650 72° East 479 551 37,000  Level Cleveland Center
06:58AM 41.4189 -80.0764 77° East 479 551 37,000  Level Cleveland Center
06:59AM 41.3992 -79.8967 98° East 470 541 37,000  Level Cleveland Center
07:00AM 41.3814 -79.7197 98° East 476 548 37,100  Climbing Cleveland Center
07:01AM 41.3653 -79.5400 97° East 483 556 37,000 -60 Descending Cleveland Center
07:02AM 41.3489 -79.3633 97° East 483 556 37,000  Level Cleveland Center
07:03AM 41.3303 -79.1867 98° East 483 556 37,000  Level Cleveland Center
07:04AM 41.3092 -79.0047 99° East 489 563 37,000 -1,260 Level Cleveland Center
07:06AM 41.2747 -78.6781 98° East 488 562 33,400 -1,380 Descending New York Center
07:07AM 41.2572 -78.5022 97° East 488 562 33,000 -240 Descending New York Center
07:08AM 41.2319 -78.3089 100° East 488 562 33,000  Level New York Center
07:09AM 41.2139 -78.1328 98° East 488 562 33,000  Level New York Center
07:10AM 41.1914 -77.9567 100° East 488 562 33,000 -60 Level New York Center
07:11AM 41.1686 -77.7806 100° East 488 562 32,900 -840 Descending New York Center
07:12AM 41.1456 -77.6017 100° East 488 562 31,400 -1,980 Descending New York Center
07:13AM 41.1250 -77.4178 98° East 488 562 29,000 -2,460 Descending New York Center
07:14AM 41.0992 -77.2417 101° East 488 562 26,500 -2,520 Descending New York Center
07:15AM 41.0753 -77.0661 100° East 488 562 24,000 -2,520 Descending New York Center
07:16AM 41.0531 -76.8933 100° East 488 562 21,500 -2,160 Descending New York Center
07:17AM 41.0303 -76.7289 100° East 470 541 19,800 -1,380 Descending New York Center
07:18AM 41.0042 -76.5836 103° East 453 521 18,800 -900 Descending New York Center
07:19AM 40.9622 -76.4153 108° East 441 507 18,000 -420 Descending New York Center
07:20AM 40.9236 -76.2608 108° East 436 502 18,000 -180 Level New York Center
07:21AM 40.8925 -76.1211 106° East 430 495 17,700 -1,200 Descending New York Center
07:22AM 40.8517 -75.9617 109° East 423 487 15,600 -2,040 Descending New York Center
07:23AM 40.8200 -75.8303 108° East 423 487 13,700 -1,380 Descending New York Center
07:24AM 40.7806 -75.6767 109° East 410 472 12,900 -780 Descending New York Center
07:25AM 40.7456 -75.5672 113° Southeast 399 459 12,200 -900 Descending New York Center
07:26AM 40.6992 -75.4189 112° Southeast 394 453 11,100 -1,080 Descending New York Center
07:27AM 40.6583 -75.2903 113° Southeast 389 448 10,100 -540 Descending New York Center
07:28AM 40.6119 -75.1450 113° Southeast 382 440 10,100  Level New York Center
07:29AM 40.5728 -75.0194 112° Southeast 382 440 10,100  Level New York Center
07:30AM 40.5372 -74.9000 111° Southeast 382 440 10,100 -60 Level New York Center
07:31AM 40.5000 -74.7500 108° East 381 438 10,000 -60 Descending New York TRACON
07:32AM 40.4500 -74.6333 119° Southeast 357 411 10,000 -1,020 Level New York TRACON
07:34AM 40.4633 -74.4264 85° East 287 330 7,100 -1,080 Descending New York Center
07:35AM 40.4872 -74.3294 72° East 282 325 7,000 -60 Descending New York Center
07:36AM 40.5131 -74.2297 71° East 280 322 7,000 -420 Level New York Center
07:37AM 40.5347 -74.1325 74° East 281 323 6,200 -1,320 Descending New York Center
07:38AM 40.5333 -74.0333 91° East 268 308 4,400 -1,680 Descending New York TRACON
07:39AM 40.6000 -74.0167 11° North 239 275 2,800 -840 Descending New York TRACON
07:40AM 40.6500 -73.9833 27° Northeast 174 200 2,800  Level New York TRACON